Aviation Digital Data Service (ADDS)

Output produced by TAFs form (0808 UTC 27 August 2016)
found at http://aviationweather.gov/adds/tafs/
 
KAEG 270520Z 2706/2806 22005KT P6SM BKN080 
     FM271500 19005KT P6SM SCT090 
     FM272000 24007KT P6SM BKN090